Time;durP1;ratioP1;P1;durP2;ratioP2;P2;SDS_P1;SDS_P2;PMS_P1;PMS_P2;Temp;Humidity;BMP_temperature;BMP_pressure;BME280_temperature;BME280_humidity;BME280_pressure;Samples;Min_cycle;Max_cycle;Signal;HPM_P1;HPM_P2
2023/06/09 00:01:37;;;;;;;9.85;5.22;;;16.00;61.50;;;;;;5015383;28;20065;-65
2023/06/09 00:04:03;;;;;;;12.30;5.03;;;16.00;61.70;;;;;;5025154;28;20045;-65
2023/06/09 00:06:33;;;;;;;10.07;4.10;;;16.00;61.90;;;;;;5023171;28;20417;-65
2023/06/09 00:08:58;;;;;;;9.50;4.28;;;16.00;61.90;;;;;;5014268;28;20045;-66
2023/06/09 00:11:26;;;;;;;9.40;4.82;;;15.90;61.90;;;;;;5024793;28;20759;-66
2023/06/09 00:13:53;;;;;;;8.80;4.50;;;15.90;61.80;;;;;;5035307;28;20041;-66
2023/06/09 00:16:18;;;;;;;15.25;5.50;;;15.90;62.10;;;;;;5015673;28;20484;-66
2023/06/09 00:18:45;;;;;;;10.38;4.63;;;15.80;62.30;;;;;;5050210;28;20052;-63
2023/06/09 00:21:15;;;;;;;12.77;5.18;;;15.80;62.40;;;;;;5025039;28;20041;-66
2023/06/09 00:23:44;;;;;;;10.60;4.60;;;15.70;62.70;;;;;;5013956;28;20121;-66
2023/06/09 00:26:10;;;;;;;12.57;5.13;;;15.70;62.90;;;;;;5017254;28;20053;-65
2023/06/09 00:28:36;;;;;;;8.13;4.20;;;15.70;62.90;;;;;;5050137;28;20056;-65
2023/06/09 00:31:02;;;;;;;11.20;4.63;;;15.70;63.00;;;;;;5029213;28;20129;-66
2023/06/09 00:33:27;;;;;;;11.80;4.85;;;15.70;63.20;;;;;;5013755;28;20116;-66
2023/06/09 00:35:53;;;;;;;18.52;6.40;;;15.70;63.30;;;;;;5028782;28;20052;-65
2023/06/09 00:38:19;;;;;;;11.13;5.13;;;15.70;63.40;;;;;;5014781;28;20042;-65
2023/06/09 00:40:45;;;;;;;10.70;5.53;;;15.60;63.70;;;;;;5016226;28;20041;-65
2023/06/09 00:43:10;;;;;;;14.73;5.82;;;15.60;63.70;;;;;;5032229;28;20045;-65
2023/06/09 00:45:36;;;;;;;9.90;5.03;;;15.60;63.90;;;;;;5034603;28;20392;-65
2023/06/09 00:48:02;;;;;;;12.48;5.05;;;15.50;64.00;;;;;;5032367;28;20140;-65
2023/06/09 00:50:29;;;;;;;11.98;5.70;;;15.50;64.00;;;;;;5016852;28;20045;-66
2023/06/09 00:52:56;;;;;;;9.25;4.78;;;15.50;64.30;;;;;;5017658;28;20049;-65
2023/06/09 00:55:23;;;;;;;11.43;4.85;;;15.50;64.20;;;;;;5015358;28;20050;-65
2023/06/09 00:57:55;;;;;;;12.55;5.40;;;15.50;64.40;;;;;;5028194;28;20041;-65
2023/06/09 01:00:29;;;;;;;12.85;5.20;;;15.40;64.50;;;;;;5030155;28;20045;-65
2023/06/09 01:03:02;;;;;;;14.05;6.15;;;15.40;64.60;;;;;;5014484;28;20045;-65
2023/06/09 01:05:38;;;;;;;10.85;4.80;;;15.40;64.80;;;;;;5010324;28;20470;-65
2023/06/09 01:08:33;;;;;;;11.45;5.25;;;15.30;65.00;;;;;;5032863;28;20086;-67
2023/06/09 01:11:15;;;;;;;14.43;6.25;;;15.30;64.90;;;;;;5031785;28;20045;-67
2023/06/09 01:13:59;;;;;;;12.98;5.15;;;15.30;65.10;;;;;;5033745;28;20499;-68
2023/06/09 01:16:47;;;;;;;11.77;5.32;;;15.30;65.10;;;;;;5047733;28;20396;-68
2023/06/09 01:19:32;;;;;;;13.07;4.70;;;15.20;65.40;;;;;;5032658;28;20053;-68
2023/06/09 01:22:18;;;;;;;11.13;4.43;;;15.20;65.90;;;;;;5018010;28;20049;-68
2023/06/09 01:24:55;;;;;;;19.02;5.18;;;15.20;65.50;;;;;;5014177;28;20049;-68
2023/06/09 01:27:21;;;;;;;12.82;5.70;;;15.20;65.80;;;;;;5016745;28;20133;-68
2023/06/09 01:29:51;;;;;;;10.75;5.05;;;15.20;65.90;;;;;;5031495;28;20369;-68
2023/06/09 01:32:18;;;;;;;14.50;5.00;;;15.20;66.20;;;;;;5012814;28;20136;-68
2023/06/09 01:34:44;;;;;;;12.43;5.38;;;15.10;66.20;;;;;;5013785;28;20060;-68
2023/06/09 01:37:12;;;;;;;10.75;4.82;;;15.10;66.50;;;;;;5009802;28;20093;-68
2023/06/09 01:39:38;;;;;;;11.43;5.20;;;15.10;66.50;;;;;;5021961;28;20049;-68
2023/06/09 01:42:06;;;;;;;11.60;5.25;;;15.10;66.80;;;;;;5014067;28;20547;-68
2023/06/09 01:44:36;;;;;;;14.38;5.45;;;15.10;66.80;;;;;;5014353;28;20042;-68
2023/06/09 01:47:02;;;;;;;15.18;5.63;;;15.00;66.80;;;;;;5030560;28;20049;-68
2023/06/09 01:49:45;;;;;;;17.80;5.97;;;15.00;67.20;;;;;;5032238;28;20088;-68
2023/06/09 01:52:24;;;;;;;15.20;6.20;;;15.00;67.40;;;;;;5012344;28;20528;-68
2023/06/09 01:54:57;;;;;;;10.98;4.53;;;14.90;67.40;;;;;;5022076;28;20048;-68
2023/06/09 01:57:30;;;;;;;12.48;5.35;;;14.90;67.40;;;;;;5014226;28;20042;-68
2023/06/09 02:00:05;;;;;;;13.10;5.03;;;14.90;67.60;;;;;;5013552;28;20045;-67
2023/06/09 02:02:33;;;;;;;13.73;5.53;;;14.90;67.50;;;;;;5028451;28;20127;-67
2023/06/09 02:05:00;;;;;;;14.02;5.57;;;14.90;67.70;;;;;;5004521;28;20371;-67
2023/06/09 02:07:27;;;;;;;14.38;5.55;;;14.90;67.70;;;;;;5019967;28;20137;-68
2023/06/09 02:09:54;;;;;;;8.65;5.35;;;14.90;67.70;;;;;;5014672;28;20046;-67
2023/06/09 02:12:20;;;;;;;11.98;5.40;;;14.90;67.70;;;;;;4995752;28;20056;-67
2023/06/09 02:14:45;;;;;;;14.40;5.32;;;14.90;68.10;;;;;;5022987;28;20049;-67
2023/06/09 02:17:12;;;;;;;9.80;4.93;;;14.90;67.70;;;;;;5029926;28;20108;-67
2023/06/09 02:19:38;;;;;;;16.30;5.40;;;14.90;67.70;;;;;;5032145;28;20042;-68
2023/06/09 02:22:08;;;;;;;11.00;5.13;;;14.90;67.70;;;;;;5029894;28;20052;-68
2023/06/09 02:24:34;;;;;;;12.55;4.97;;;14.90;67.60;;;;;;5032954;28;20052;-68
2023/06/09 02:27:02;;;;;;;14.05;5.85;;;14.90;67.40;;;;;;5015326;28;20111;-68
2023/06/09 02:29:28;;;;;;;14.25;5.00;;;14.90;67.40;;;;;;5031656;28;20038;-68
2023/06/09 02:31:55;;;;;;;11.32;5.20;;;14.90;67.50;;;;;;5017320;28;20044;-68
2023/06/09 02:34:22;;;;;;;11.23;5.40;;;14.90;68.00;;;;;;5020189;28;20041;-68
2023/06/09 02:36:52;;;;;;;13.65;6.05;;;14.80;67.60;;;;;;4994650;28;20042;-68
2023/06/09 02:39:19;;;;;;;9.15;4.43;;;14.80;67.80;;;;;;5007896;28;20034;-68
2023/06/09 02:41:45;;;;;;;12.65;5.03;;;14.80;67.60;;;;;;5013670;28;20497;-68
2023/06/09 02:44:10;;;;;;;8.30;4.60;;;14.80;67.70;;;;;;5012459;28;20130;-68
2023/06/09 02:46:38;;;;;;;11.30;5.60;;;14.70;67.50;;;;;;5032746;28;20077;-69
2023/06/09 02:49:04;;;;;;;9.52;5.18;;;14.80;67.60;;;;;;5016682;28;20050;-68
2023/06/09 02:51:30;;;;;;;10.48;5.75;;;14.80;67.50;;;;;;5029929;28;20550;-68
2023/06/09 02:53:56;;;;;;;11.63;5.45;;;14.80;67.60;;;;;;5030995;28;20033;-68
2023/06/09 02:56:22;;;;;;;8.63;4.45;;;14.80;67.50;;;;;;5047737;28;20046;-68
2023/06/09 02:58:48;;;;;;;14.48;5.88;;;14.80;67.40;;;;;;5047903;28;20053;-68
2023/06/09 03:01:17;;;;;;;12.68;5.60;;;14.80;67.40;;;;;;5029171;28;20068;-68
2023/06/09 03:03:44;;;;;;;14.93;4.90;;;14.80;67.30;;;;;;5031052;28;20103;-68
2023/06/09 03:06:13;;;;;;;10.35;4.70;;;14.80;67.30;;;;;;5030851;28;20462;-68
2023/06/09 03:08:42;;;;;;;14.60;6.35;;;14.80;67.20;;;;;;5015636;28;20057;-68
2023/06/09 03:11:08;;;;;;;9.27;4.65;;;14.80;67.10;;;;;;5022215;28;20037;-68
2023/06/09 03:13:33;;;;;;;13.07;5.95;;;14.80;67.00;;;;;;5035899;28;20030;-68
2023/06/09 03:15:59;;;;;;;9.98;4.65;;;14.80;67.10;;;;;;5023914;28;20048;-68
2023/06/09 03:18:26;;;;;;;11.57;5.35;;;14.80;67.00;;;;;;5035968;28;20046;-68
2023/06/09 03:20:52;;;;;;;7.97;4.32;;;14.80;66.90;;;;;;5024592;28;20037;-68
2023/06/09 03:23:21;;;;;;;9.05;4.65;;;14.80;66.60;;;;;;5034526;28;20492;-68
2023/06/09 03:25:51;;;;;;;12.13;5.50;;;14.90;66.50;;;;;;5033912;28;20400;-68
2023/06/09 03:28:17;;;;;;;13.05;6.35;;;14.90;66.50;;;;;;4998510;28;20050;-68
2023/06/09 03:30:43;;;;;;;12.18;6.00;;;14.90;66.70;;;;;;5018842;28;20033;-68
2023/06/09 03:33:11;;;;;;;13.10;4.40;;;14.90;66.80;;;;;;5033819;28;20053;-68
2023/06/09 03:35:37;;;;;;;9.13;4.50;;;14.90;66.60;;;;;;5034549;28;20053;-68
2023/06/09 03:38:02;;;;;;;16.20;6.07;;;14.90;66.30;;;;;;5015197;28;20049;-68
2023/06/09 03:40:28;;;;;;;10.82;5.38;;;14.90;66.50;;;;;;5034627;28;20037;-68
2023/06/09 03:42:54;;;;;;;10.60;4.45;;;14.90;66.50;;;;;;5035558;28;20380;-68
2023/06/09 03:45:19;;;;;;;12.05;5.45;;;14.90;66.50;;;;;;5001701;28;20080;-68
2023/06/09 03:47:45;;;;;;;10.52;4.90;;;14.90;66.30;;;;;;5034079;28;20048;-68
2023/06/09 03:50:11;;;;;;;12.10;5.90;;;14.90;66.30;;;;;;5015795;28;20048;-68
2023/06/09 03:52:37;;;;;;;12.30;6.32;;;14.90;66.30;;;;;;5034386;28;20049;-68
2023/06/09 03:55:03;;;;;;;12.40;4.95;;;15.00;66.30;;;;;;5035476;28;20057;-68
2023/06/09 03:57:28;;;;;;;11.93;5.13;;;15.00;66.20;;;;;;5033861;28;20037;-66
2023/06/09 03:59:54;;;;;;;9.85;4.72;;;15.00;66.10;;;;;;5017368;28;20033;-66
2023/06/09 04:02:19;;;;;;;10.45;6.03;;;15.00;66.10;;;;;;5030107;28;20481;-66
2023/06/09 04:04:45;;;;;;;10.52;4.75;;;15.10;66.10;;;;;;5017483;28;20184;-65
2023/06/09 04:07:11;;;;;;;12.85;5.10;;;15.00;66.00;;;;;;5033291;28;20048;-66
2023/06/09 04:09:37;;;;;;;14.15;5.80;;;15.00;66.20;;;;;;5018748;28;20046;-66
2023/06/09 04:12:03;;;;;;;11.27;5.75;;;15.00;66.40;;;;;;5030206;28;20036;-66
2023/06/09 04:14:28;;;;;;;13.93;6.15;;;15.00;66.60;;;;;;5033425;28;20484;-66
2023/06/09 04:16:54;;;;;;;15.52;5.50;;;15.00;66.80;;;;;;5033705;28;20052;-66
2023/06/09 04:19:20;;;;;;;11.02;5.45;;;15.00;66.80;;;;;;5030657;28;20037;-66
2023/06/09 04:21:46;;;;;;;10.68;5.63;;;15.00;66.90;;;;;;5027293;28;20388;-66
2023/06/09 04:24:14;;;;;;;17.10;6.50;;;15.00;67.00;;;;;;5034494;28;20034;-66
2023/06/09 04:26:40;;;;;;;13.35;5.78;;;15.00;67.30;;;;;;5034882;28;20052;-66
2023/06/09 04:29:09;;;;;;;11.43;6.10;;;15.00;67.30;;;;;;5024877;28;20104;-66
2023/06/09 04:31:37;;;;;;;15.30;7.00;;;15.00;67.60;;;;;;5025751;28;20038;-65
2023/06/09 04:34:09;;;;;;;14.43;6.32;;;15.00;68.00;;;;;;5050004;28;20113;-66
2023/06/09 04:36:39;;;;;;;13.70;6.38;;;14.90;67.90;;;;;;4998717;28;20061;-66
2023/06/09 04:39:08;;;;;;;10.10;5.40;;;14.90;68.20;;;;;;5025488;28;20046;-66
2023/06/09 04:41:34;;;;;;;10.13;5.50;;;14.90;68.50;;;;;;5015308;28;20040;-66
2023/06/09 04:44:06;;;;;;;15.15;6.57;;;14.90;68.70;;;;;;5033309;28;20465;-66
2023/06/09 04:46:37;;;;;;;14.00;6.85;;;14.90;69.00;;;;;;5049854;28;20072;-66
2023/06/09 04:49:09;;;;;;;17.40;6.20;;;14.80;69.20;;;;;;5024230;28;20386;-66
2023/06/09 04:51:47;;;;;;;15.73;7.00;;;14.80;69.50;;;;;;5013159;28;20515;-65
2023/06/09 04:54:13;;;;;;;12.75;5.38;;;14.80;69.70;;;;;;5014473;28;20072;-65
2023/06/09 04:56:40;;;;;;;17.60;7.13;;;14.80;69.90;;;;;;5013507;28;20042;-65
2023/06/09 04:59:07;;;;;;;14.30;6.20;;;14.80;70.10;;;;;;5017591;28;20064;-65
2023/06/09 05:01:33;;;;;;;15.27;6.53;;;14.80;70.30;;;;;;5016871;28;20046;-65
2023/06/09 05:04:00;;;;;;;13.85;7.40;;;14.80;70.40;;;;;;4996670;28;20343;-65
2023/06/09 05:06:26;;;;;;;16.17;7.47;;;14.80;70.60;;;;;;4998139;28;20120;-65
2023/06/09 05:08:51;;;;;;;10.63;6.20;;;14.80;71.00;;;;;;5025719;28;20045;-65
2023/06/09 05:11:17;;;;;;;15.65;7.30;;;14.80;71.30;;;;;;5019726;28;20061;-65
2023/06/09 05:13:43;;;;;;;11.18;6.75;;;14.90;71.80;;;;;;5032772;28;20044;-65
2023/06/09 05:16:09;;;;;;;15.50;7.45;;;15.00;72.10;;;;;;5033974;28;20050;-65
2023/06/09 05:18:35;;;;;;;18.23;7.72;;;15.10;72.00;;;;;;5032846;28;20041;-65
2023/06/09 05:21:00;;;;;;;13.95;7.25;;;15.20;72.00;;;;;;5025946;28;20038;-65
2023/06/09 05:23:26;;;;;;;16.88;7.47;;;15.30;71.90;;;;;;5016919;28;20478;-65
2023/06/09 05:25:52;;;;;;;15.50;7.15;;;15.50;71.80;;;;;;5031666;28;20117;-65
2023/06/09 05:28:18;;;;;;;17.58;7.75;;;15.60;71.70;;;;;;5033128;28;20057;-65
2023/06/09 05:30:43;;;;;;;17.35;6.78;;;15.70;71.50;;;;;;5026972;28;20065;-65
2023/06/09 05:33:09;;;;;;;13.80;6.68;;;15.90;71.20;;;;;;5013763;28;20123;-65
2023/06/09 05:35:35;;;;;;;13.50;6.03;;;16.10;70.90;;;;;;5012608;28;20120;-65
2023/06/09 05:38:01;;;;;;;15.13;6.28;;;16.30;70.20;;;;;;5013797;28;20042;-65
2023/06/09 05:40:26;;;;;;;15.85;6.88;;;16.50;69.90;;;;;;5015287;28;20029;-65
2023/06/09 05:42:52;;;;;;;14.90;6.22;;;16.70;69.30;;;;;;5018362;28;20041;-65
2023/06/09 05:45:18;;;;;;;18.92;7.10;;;16.90;68.50;;;;;;4999523;28;20045;-65
2023/06/09 05:47:44;;;;;;;22.00;7.85;;;17.20;68.20;;;;;;5031642;28;20484;-65
2023/06/09 05:50:09;;;;;;;18.10;7.68;;;17.40;67.40;;;;;;5028094;28;20045;-65
2023/06/09 05:52:35;;;;;;;16.20;6.45;;;17.60;66.60;;;;;;4993882;28;20050;-65
2023/06/09 05:55:01;;;;;;;14.93;7.60;;;17.70;66.00;;;;;;4992677;28;20474;-65
2023/06/09 05:57:29;;;;;;;14.25;6.80;;;17.80;65.70;;;;;;5006174;28;20029;-65
2023/06/09 05:59:56;;;;;;;11.80;6.78;;;18.00;65.20;;;;;;5031189;28;20116;-65
2023/06/09 06:02:24;;;;;;;15.05;6.78;;;18.10;65.20;;;;;;5013711;28;20041;-65
2023/06/09 06:04:49;;;;;;;13.57;6.22;;;18.30;64.80;;;;;;5030903;28;20049;-65
2023/06/09 06:07:16;;;;;;;15.13;7.05;;;18.50;64.60;;;;;;5026757;28;20033;-66
2023/06/09 06:09:42;;;;;;;13.40;6.28;;;18.70;64.20;;;;;;5012135;28;20493;-66
2023/06/09 06:12:08;;;;;;;12.02;6.60;;;18.80;63.50;;;;;;5027692;28;20061;-66
2023/06/09 06:14:34;;;;;;;13.15;6.35;;;18.90;62.80;;;;;;5048294;28;20046;-66
2023/06/09 06:16:59;;;;;;;12.65;6.57;;;19.10;62.50;;;;;;5031254;28;20041;-67
2023/06/09 06:19:25;;;;;;;12.25;7.03;;;19.40;61.90;;;;;;5027720;28;20073;-66
2023/06/09 06:21:51;;;;;;;11.13;6.82;;;19.60;61.30;;;;;;5019094;28;20509;-66
2023/06/09 06:24:17;;;;;;;13.13;6.70;;;19.70;60.60;;;;;;5012195;28;20121;-67
2023/06/09 06:26:43;;;;;;;16.13;6.53;;;19.80;60.60;;;;;;5016431;28;20159;-66
2023/06/09 06:29:08;;;;;;;14.95;6.88;;;20.00;60.10;;;;;;5011716;28;20405;-66
2023/06/09 06:31:34;;;;;;;13.75;6.93;;;20.20;59.60;;;;;;5011711;28;20120;-66
2023/06/09 06:34:00;;;;;;;14.93;6.95;;;20.40;59.70;;;;;;4993090;28;20046;-66
2023/06/09 06:36:28;;;;;;;11.18;6.13;;;20.60;59.40;;;;;;5025554;28;20104;-66
2023/06/09 06:38:54;;;;;;;11.00;5.72;;;20.90;59.10;;;;;;5011802;28;20046;-68
2023/06/09 06:41:20;;;;;;;10.45;5.88;;;21.20;58.30;;;;;;5025004;28;20083;-69
2023/06/09 06:43:49;;;;;;;14.75;7.20;;;21.50;57.60;;;;;;5023178;28;20042;-69
2023/06/09 06:46:17;;;;;;;11.40;6.10;;;21.70;56.60;;;;;;5019201;28;20045;-69
2023/06/09 06:48:43;;;;;;;13.50;6.82;;;21.80;56.30;;;;;;5034248;28;20480;-70
2023/06/09 06:51:09;;;;;;;10.32;6.18;;;22.00;56.00;;;;;;5024440;28;20052;-69
2023/06/09 06:53:36;;;;;;;11.25;6.15;;;22.10;55.30;;;;;;5039906;28;20045;-69
2023/06/09 06:56:02;;;;;;;11.45;6.65;;;22.20;54.90;;;;;;5033314;28;20057;-69
2023/06/09 06:58:28;;;;;;;14.45;6.65;;;22.30;54.50;;;;;;5015601;28;20385;-69
2023/06/09 07:00:57;;;;;;;12.38;6.07;;;22.40;54.00;;;;;;5016788;28;20559;-69
2023/06/09 07:03:26;;;;;;;11.57;6.20;;;22.30;54.10;;;;;;5017824;28;20042;-70
2023/06/09 07:05:53;;;;;;;13.50;6.85;;;22.40;54.50;;;;;;5016701;28;20119;-70
2023/06/09 07:08:19;;;;;;;13.13;6.20;;;22.50;53.80;;;;;;5015619;28;20050;-70
2023/06/09 07:10:45;;;;;;;12.10;6.53;;;22.50;53.80;;;;;;5017299;28;20052;-70
2023/06/09 07:13:11;;;;;;;12.10;6.60;;;22.40;53.60;;;;;;4998827;28;20060;-69
2023/06/09 07:15:37;;;;;;;10.43;5.88;;;22.40;53.90;;;;;;5015183;28;20046;-70
2023/06/09 07:18:03;;;;;;;13.13;6.43;;;22.50;53.50;;;;;;5015246;28;20046;-70
2023/06/09 07:20:29;;;;;;;10.15;5.50;;;22.50;54.30;;;;;;5013024;28;20038;-70
2023/06/09 07:22:55;;;;;;;10.68;5.93;;;22.60;53.20;;;;;;4995749;28;20046;-70
2023/06/09 07:25:20;;;;;;;12.35;6.63;;;22.60;53.00;;;;;;4995524;28;20074;-70
2023/06/09 07:27:47;;;;;;;12.13;6.15;;;22.60;52.80;;;;;;5013348;28;20049;-69
2023/06/09 07:30:13;;;;;;;11.07;5.72;;;22.60;52.60;;;;;;5018498;28;20041;-70
2023/06/09 07:32:41;;;;;;;13.48;6.57;;;22.70;52.80;;;;;;5014412;28;20367;-69
2023/06/09 07:35:12;;;;;;;14.73;7.07;;;22.80;52.70;;;;;;5014932;28;20061;-69
2023/06/09 07:37:40;;;;;;;13.80;6.38;;;22.90;51.80;;;;;;5020473;28;20041;-69
2023/06/09 07:40:07;;;;;;;10.98;5.72;;;22.90;52.10;;;;;;5018237;28;20453;-69
2023/06/09 07:42:33;;;;;;;13.32;5.90;;;22.90;51.10;;;;;;5034287;28;20121;-69
2023/06/09 07:44:58;;;;;;;10.25;5.47;;;23.00;51.70;;;;;;5018143;28;20045;-69
2023/06/09 07:47:24;;;;;;;11.50;5.50;;;23.00;51.90;;;;;;5034097;28;20044;-69
2023/06/09 07:49:50;;;;;;;15.05;5.40;;;23.10;52.10;;;;;;5034556;28;20049;-69
2023/06/09 07:52:15;;;;;;;7.65;4.55;;;23.20;52.10;;;;;;5033562;28;20485;-69
2023/06/09 07:54:41;;;;;;;10.82;5.75;;;23.30;51.90;;;;;;5050244;28;20080;-70
2023/06/09 07:57:07;;;;;;;11.85;6.47;;;23.40;51.10;;;;;;5017792;28;20038;-70
2023/06/09 07:59:32;;;;;;;12.20;5.72;;;23.50;50.60;;;;;;5050866;28;20042;-70
2023/06/09 08:01:58;;;;;;;9.25;5.60;;;23.60;50.80;;;;;;5028410;28;20172;-70
2023/06/09 08:04:25;;;;;;;10.45;5.28;;;23.60;50.00;;;;;;5024866;28;20401;-70
2023/06/09 08:06:51;;;;;;;7.80;5.00;;;23.60;49.90;;;;;;5023600;28;20053;-70
2023/06/09 08:09:17;;;;;;;11.73;5.72;;;23.70;49.60;;;;;;5050637;28;20504;-70
2023/06/09 08:11:42;;;;;;;12.00;5.65;;;23.70;49.10;;;;;;5019048;28;20103;-70
2023/06/09 08:14:08;;;;;;;7.70;5.25;;;23.70;49.40;;;;;;5014426;28;20416;-70
2023/06/09 08:16:35;;;;;;;8.13;5.07;;;23.70;49.90;;;;;;5014026;28;20565;-70
2023/06/09 08:19:00;;;;;;;8.45;5.38;;;23.80;50.20;;;;;;5014102;28;20089;-70
2023/06/09 08:21:26;;;;;;;10.80;6.00;;;23.90;49.70;;;;;;5031625;28;20073;-70
2023/06/09 08:23:52;;;;;;;11.02;4.75;;;23.90;49.20;;;;;;5033800;28;20095;-70
2023/06/09 08:26:18;;;;;;;9.75;5.35;;;23.90;49.40;;;;;;5034353;28;20096;-70
2023/06/09 08:28:44;;;;;;;8.77;5.15;;;24.00;49.30;;;;;;5026267;28;20118;-70
2023/06/09 08:31:09;;;;;;;8.98;4.68;;;24.10;49.30;;;;;;5033493;28;20048;-70
2023/06/09 08:33:36;;;;;;;8.70;5.32;;;24.20;48.90;;;;;;5034570;28;20064;-70
2023/06/09 08:36:03;;;;;;;10.00;5.82;;;24.30;49.00;;;;;;5049718;28;20129;-70
2023/06/09 08:38:34;;;;;;;8.20;4.95;;;24.50;48.10;;;;;;5033431;28;20041;-70
2023/06/09 08:41:10;;;;;;;8.15;4.82;;;24.60;47.90;;;;;;5033560;28;20046;-70
2023/06/09 08:43:36;;;;;;;9.15;4.93;;;24.70;48.30;;;;;;5030128;28;20049;-70
2023/06/09 08:46:08;;;;;;;8.40;5.05;;;24.80;47.40;;;;;;4997441;28;20041;-70
2023/06/09 08:48:38;;;;;;;9.23;5.65;;;24.90;47.00;;;;;;5014746;28;20034;-70
2023/06/09 08:51:04;;;;;;;14.32;5.57;;;24.90;46.50;;;;;;5013484;28;20477;-70
2023/06/09 08:53:31;;;;;;;13.73;5.90;;;25.00;46.80;;;;;;4997262;28;20103;-70
2023/06/09 08:55:59;;;;;;;12.43;5.60;;;25.10;47.10;;;;;;4996964;28;20067;-70
2023/06/09 08:58:26;;;;;;;8.93;5.57;;;25.20;47.60;;;;;;5013290;28;20497;-70
2023/06/09 09:00:53;;;;;;;8.30;5.50;;;25.30;47.40;;;;;;5014381;28;20048;-70
2023/06/09 09:03:18;;;;;;;8.93;5.68;;;25.40;46.70;;;;;;5013540;28;20029;-68
2023/06/09 09:05:45;;;;;;;9.25;5.25;;;25.40;46.10;;;;;;5014522;28;20052;-67
2023/06/09 09:08:12;;;;;;;8.65;6.32;;;25.30;46.00;;;;;;5014387;28;20045;-67
2023/06/09 09:10:40;;;;;;;8.50;4.78;;;25.30;46.50;;;;;;5013154;28;20037;-67
2023/06/09 09:13:10;;;;;;;7.95;4.95;;;25.30;46.90;;;;;;4996585;28;20042;-67
2023/06/09 09:15:37;;;;;;;8.88;5.80;;;25.40;47.30;;;;;;5012884;28;20078;-67
2023/06/09 09:18:06;;;;;;;9.30;5.88;;;25.50;47.30;;;;;;5015853;28;20393;-67
2023/06/09 09:20:34;;;;;;;11.85;6.15;;;25.50;46.60;;;;;;5032249;28;20045;-67
2023/06/09 09:23:00;;;;;;;8.90;6.10;;;25.60;46.60;;;;;;5016335;28;20099;-67
2023/06/09 09:25:27;;;;;;;9.23;6.70;;;25.50;46.70;;;;;;5032818;28;20049;-67
2023/06/09 09:28:06;;;;;;;11.15;6.03;;;25.50;46.10;;;;;;5032618;28;20455;-67
2023/06/09 09:30:40;;;;;;;10.68;6.13;;;25.40;46.70;;;;;;5032357;28;20059;-67
2023/06/09 09:33:10;;;;;;;10.90;5.80;;;25.40;46.80;;;;;;5032242;28;20045;-67
2023/06/09 09:35:43;;;;;;;7.93;5.75;;;25.40;47.90;;;;;;5047126;28;20049;-67
2023/06/09 09:38:28;;;;;;;10.55;6.10;;;25.50;47.60;;;;;;5033497;28;20556;-68
2023/06/09 09:40:56;;;;;;;10.25;5.75;;;25.70;47.70;;;;;;5031604;28;20131;-68
2023/06/09 09:43:25;;;;;;;8.80;6.13;;;25.80;47.40;;;;;;5033484;28;20117;-68
2023/06/09 09:45:53;;;;;;;12.82;6.35;;;26.00;47.70;;;;;;5032260;28;20076;-68
2023/06/09 09:48:22;;;;;;;9.27;5.43;;;26.20;46.80;;;;;;5024732;28;20115;-69
2023/06/09 09:50:51;;;;;;;9.38;6.05;;;26.20;46.00;;;;;;5013498;28;20037;-67
2023/06/09 09:53:17;;;;;;;9.23;5.70;;;26.30;46.40;;;;;;5011219;28;20128;-66
2023/06/09 09:55:45;;;;;;;9.23;5.65;;;26.30;45.10;;;;;;5012152;28;20489;-66
2023/06/09 09:58:12;;;;;;;9.93;6.07;;;26.30;45.40;;;;;;5011861;28;20133;-67
2023/06/09 10:00:40;;;;;;;10.75;5.80;;;26.30;46.20;;;;;;5011248;28;20041;-66
2023/06/09 10:03:15;;;;;;;9.98;5.88;;;26.40;45.90;;;;;;5008541;28;20049;-68
2023/06/09 10:05:47;;;;;;;7.20;5.97;;;26.40;45.50;;;;;;5006754;28;20100;-68
2023/06/09 10:08:36;;;;;;;11.07;6.07;;;26.40;45.20;;;;;;5012263;28;20117;-70
2023/06/09 10:11:03;;;;;;;8.60;5.45;;;26.40;44.90;;;;;;5010368;28;20081;-69
2023/06/09 10:13:29;;;;;;;9.10;4.95;;;26.30;45.50;;;;;;5014692;28;20083;-69
2023/06/09 10:15:56;;;;;;;10.25;5.68;;;26.40;45.90;;;;;;5009275;28;20092;-69
2023/06/09 10:18:22;;;;;;;11.20;5.20;;;26.60;46.00;;;;;;5011692;28;20079;-71
2023/06/09 10:20:50;;;;;;;9.93;5.90;;;26.70;44.90;;;;;;5013679;28;20049;-70
2023/06/09 10:23:16;;;;;;;11.05;5.53;;;26.70;44.20;;;;;;5014679;28;20037;-70
2023/06/09 10:25:45;;;;;;;7.63;5.57;;;26.80;45.10;;;;;;5013463;28;20509;-70
2023/06/09 10:28:12;;;;;;;8.00;5.32;;;26.90;44.80;;;;;;5011931;28;20050;-70
2023/06/09 10:30:38;;;;;;;8.93;5.20;;;27.00;44.10;;;;;;5007374;28;20037;-70
2023/06/09 10:33:18;;;;;;;9.15;5.82;;;27.10;43.30;;;;;;5005383;28;20129;-70
2023/06/09 10:35:47;;;;;;;9.65;5.10;;;27.20;43.40;;;;;;5007160;28;20049;-70
2023/06/09 10:38:29;;;;;;;12.98;5.43;;;27.20;43.80;;;;;;5007260;28;20103;-70
2023/06/09 10:41:08;;;;;;;8.27;4.47;;;27.40;43.80;;;;;;4990456;28;20088;-70
2023/06/09 10:43:49;;;;;;;7.78;5.28;;;27.60;44.00;;;;;;5006326;28;20038;-70
2023/06/09 10:46:15;;;;;;;7.68;4.40;;;27.80;43.00;;;;;;5006358;28;20042;-70
2023/06/09 10:48:48;;;;;;;6.90;5.30;;;27.80;43.10;;;;;;5007317;28;20104;-70
2023/06/09 10:51:26;;;;;;;9.30;4.97;;;27.90;41.00;;;;;;5006689;28;20037;-70
2023/06/09 10:54:10;;;;;;;5.82;4.20;;;27.80;41.70;;;;;;5006298;28;20156;-70
2023/06/09 10:56:37;;;;;;;6.88;4.97;;;27.90;42.60;;;;;;5005848;28;20128;-70
2023/06/09 10:59:03;;;;;;;8.93;4.90;;;28.00;42.50;;;;;;5009102;28;20042;-70
2023/06/09 11:01:29;;;;;;;8.18;5.22;;;28.20;41.90;;;;;;5007248;28;20103;-69
2023/06/09 11:03:55;;;;;;;6.53;5.07;;;28.30;41.70;;;;;;5008017;28;20033;-69
2023/06/09 11:06:21;;;;;;;12.55;5.93;;;28.40;41.10;;;;;;4990356;28;20049;-69
2023/06/09 11:09:13;;;;;;;7.93;5.45;;;28.50;40.40;;;;;;5007503;28;20409;-69
2023/06/09 11:11:57;;;;;;;9.88;5.20;;;28.40;39.40;;;;;;5017466;28;20064;-70
2023/06/09 11:14:45;;;;;;;9.15;5.10;;;28.40;40.00;;;;;;5006076;28;20065;-68
2023/06/09 11:17:30;;;;;;;7.20;4.15;;;28.50;39.70;;;;;;5008219;28;20456;-69
2023/06/09 11:20:08;;;;;;;9.63;4.70;;;28.50;39.50;;;;;;5029532;28;20049;-68
2023/06/09 11:22:59;;;;;;;9.75;5.55;;;28.50;40.10;;;;;;5031149;28;20485;-67
2023/06/09 11:25:26;;;;;;;11.50;4.78;;;28.60;40.60;;;;;;5019816;28;20057;-68
2023/06/09 11:27:55;;;;;;;6.95;3.92;;;28.70;39.70;;;;;;5034753;28;20050;-67
2023/06/09 11:30:23;;;;;;;6.75;4.47;;;28.70;39.80;;;;;;5019166;28;20041;-67
2023/06/09 11:32:59;;;;;;;7.82;4.78;;;28.70;39.80;;;;;;5014632;28;20084;-67
2023/06/09 11:37:56;;;;;;;9.35;5.00;;;28.90;39.70;;;;;;5034321;28;20049;-67
2023/06/09 11:40:22;;;;;;;6.72;4.65;;;28.90;38.80;;;;;;5034560;28;20092;-67
2023/06/09 11:42:48;;;;;;;10.77;5.75;;;29.00;38.50;;;;;;5035740;28;20044;-68
2023/06/09 11:45:15;;;;;;;8.55;5.05;;;29.00;38.70;;;;;;5034809;28;20048;-68
2023/06/09 11:47:42;;;;;;;6.45;4.60;;;29.00;38.50;;;;;;5021676;28;20049;-67
2023/06/09 11:50:13;;;;;;;7.28;4.57;;;29.10;39.30;;;;;;5034363;28;20053;-67
2023/06/09 11:52:43;;;;;;;6.30;4.40;;;29.20;38.50;;;;;;5026554;28;20504;-68
2023/06/09 11:55:12;;;;;;;6.88;4.60;;;29.20;38.20;;;;;;5035264;28;20053;-67
2023/06/09 11:57:38;;;;;;;7.13;4.82;;;29.20;37.60;;;;;;5035399;28;20052;-68
2023/06/09 12:00:12;;;;;;;5.88;4.55;;;29.20;37.70;;;;;;5034217;28;20048;-67
2023/06/09 12:02:39;;;;;;;6.45;4.50;;;29.20;37.20;;;;;;5028744;28;20041;-68
2023/06/09 12:05:10;;;;;;;5.47;4.65;;;29.20;37.40;;;;;;5019555;28;20073;-68
2023/06/09 12:07:36;;;;;;;7.38;4.40;;;29.20;37.40;;;;;;5034708;28;20049;-68
2023/06/09 12:10:03;;;;;;;7.93;4.65;;;29.20;37.20;;;;;;5033984;28;20095;-69
2023/06/09 12:12:29;;;;;;;7.07;4.32;;;29.20;37.00;;;;;;5035210;28;20576;-69
2023/06/09 12:14:55;;;;;;;8.68;4.97;;;29.00;37.30;;;;;;5026911;28;20117;-69
2023/06/09 12:17:22;;;;;;;7.30;4.55;;;29.00;37.20;;;;;;5014321;28;20048;-69
2023/06/09 12:19:49;;;;;;;5.28;4.38;;;29.00;37.10;;;;;;5016484;28;20430;-69
2023/06/09 12:22:16;;;;;;;7.32;4.60;;;29.00;37.70;;;;;;5013973;28;20042;-70
2023/06/09 12:24:44;;;;;;;8.70;4.82;;;29.00;38.10;;;;;;5015230;28;20042;-69
2023/06/09 12:27:11;;;;;;;9.27;4.50;;;29.10;37.40;;;;;;5015080;28;20107;-69
2023/06/09 12:29:37;;;;;;;5.70;4.82;;;29.10;37.10;;;;;;5022027;28;20045;-69
2023/06/09 12:32:04;;;;;;;5.45;4.82;;;29.10;37.00;;;;;;5034925;28;20045;-69
2023/06/09 12:34:30;;;;;;;8.35;4.90;;;29.10;37.20;;;;;;5034290;28;20060;-69
2023/06/09 12:36:57;;;;;;;5.10;4.28;;;29.10;37.80;;;;;;5034695;28;20477;-69
2023/06/09 12:39:28;;;;;;;5.88;4.82;;;29.10;37.00;;;;;;5033587;28;20084;-69
2023/06/09 12:41:54;;;;;;;6.30;4.50;;;29.10;37.30;;;;;;5033506;28;20044;-69
2023/06/09 12:44:24;;;;;;;8.13;4.68;;;29.10;37.50;;;;;;5034405;28;20041;-69
2023/06/09 12:46:57;;;;;;;5.38;4.45;;;29.20;37.90;;;;;;5028571;28;20041;-68
2023/06/09 12:49:32;;;;;;;5.07;4.00;;;29.20;37.40;;;;;;5017258;28;20491;-69